Aérodrome :
LOGIN :

S'inscrire | Disclaimer

   EN    FR    IT 

 










Légende :    VFR   VFR Marginal   IFR   IFR Intensif   IFR Très Intensif
Visi : 
Plafond : 
>= 8 km
>= 3000ft
5 à 8 km
1000 à 3000 ft
1500m à 5 km
500 à 1000 ft
800 à 1500m
200 à 500 ft
< 800m
< 200 ft
Symboles :   Orages  Brouillard  Fortes neiges  Fortes précipitations  Vent > 20 kt
SIGMETs :   Divers  Orages  Givrage  Turbulence  Onde Orograph.  Cendres Volcan.






- Altitude de l'aérodrome : 83 ft
- Code IATA : LHR


EGLL - London Heathrow

DERNIER METAR :
  • 062220Z AUTO 27005KT 9999 NCD 09/03 Q1027 NOSIG

METARs EXPIRÉS :
  • 062150Z AUTO VRB01KT 9999 NCD 11/04 Q1026 NOSIG
  • 062120Z AUTO 25001KT 9999 NCD 10/04 Q1026 NOSIG
  • 062050Z AUTO 31004KT 9999 NCD 10/03 Q1025 NOSIG
  • 062020Z AUTO 30003KT 9999 NCD 10/04 Q1025 NOSIG
  • 061950Z AUTO 30003KT 9999 NCD 11/04 Q1025 NOSIG
  • 061920Z AUTO 28006KT 9999 NCD 11/04 Q1024 NOSIG

TAF TAF EGLL
Valide du 06 à 18h jusqu'au 08 à 00h UTC


061653Z 0618/0724 27010KT 9999 SCT045
BECMG 0621/0624 VRB03KT
PROB30 0703/0707 6000
BECMG 0709/0712 15010KT
BECMG 0721/0724 08005KT



MET'MAP, la Météo Aéronautique d'un coup d'oeil ! - Copyright ORBIFLY Décembre 2007 - Disclaimer

ORBIFLY MET'MAP TEAM :

Programmation & Développement : Alexandra Zaïnal
Sur une idée originale de : Baudouin d'Aumeries
Assistance à la programmation : Marc-Olivier Méhu
Soutien technique & logistique : Manuel Goepfert

Contact : metmap@orbifly.com




SOURCES & CREDITS :

   NOAA